sensor_id;sensor_type;location;lat;lon;timestamp;temperature;humidity
53954;HTU21D;39862;54.856;26.318;2022-08-14T02:04:03;20.5;55.1
53954;HTU21D;39862;54.856;26.318;2022-08-14T02:08:43;19;60.1
53954;HTU21D;39862;54.856;26.318;2022-08-14T02:13:33;19;60.1
53954;HTU21D;39862;54.856;26.318;2022-08-14T02:19:23;19;60.4
53954;HTU21D;39862;54.856;26.318;2022-08-14T02:24:20;19;60.8
53954;HTU21D;39862;54.856;26.318;2022-08-14T02:29:20;19;61
53954;HTU21D;39862;54.856;26.318;2022-08-14T02:33:55;19;61
53954;HTU21D;39862;54.856;26.318;2022-08-14T02:39:19;19;60.7
53954;HTU21D;39862;54.856;26.318;2022-08-14T02:44:19;19;60.6
53954;HTU21D;39862;54.856;26.318;2022-08-14T02:48:51;19;60.7
53954;HTU21D;39862;54.856;26.318;2022-08-14T02:53:53;19;60.8
53954;HTU21D;39862;54.856;26.318;2022-08-14T02:58:59;18.9;60.9
53954;HTU21D;39862;54.856;26.318;2022-08-14T03:03:43;18.9;60.9
53954;HTU21D;39862;54.856;26.318;2022-08-14T03:08:53;18.9;60.8
53954;HTU21D;39862;54.856;26.318;2022-08-14T03:13:42;18.9;61.1
53954;HTU21D;39862;54.856;26.318;2022-08-14T03:19:17;18.9;61.2
53954;HTU21D;39862;54.856;26.318;2022-08-14T03:24:07;18.9;61.3
53954;HTU21D;39862;54.856;26.318;2022-08-14T03:28:33;18.9;61.3
53954;HTU21D;39862;54.856;26.318;2022-08-14T03:34:20;18.9;61.5
53954;HTU21D;39862;54.856;26.318;2022-08-14T03:38:53;18.9;61.7
53954;HTU21D;39862;54.856;26.318;2022-08-14T03:44:19;18.9;61.8
53954;HTU21D;39862;54.856;26.318;2022-08-14T03:48:33;18.9;61.9
53954;HTU21D;39862;54.856;26.318;2022-08-14T03:53:34;18.9;61.9
53954;HTU21D;39862;54.856;26.318;2022-08-14T03:59:17;18.9;62.2
53954;HTU21D;39862;54.856;26.318;2022-08-14T04:04:05;19;62.1
53954;HTU21D;39862;54.856;26.318;2022-08-14T04:08:55;19;62.2
53954;HTU21D;39862;54.856;26.318;2022-08-14T04:13:36;19;62.2
53954;HTU21D;39862;54.856;26.318;2022-08-14T04:18:52;19.1;62.3
53954;HTU21D;39862;54.856;26.318;2022-08-14T04:24:07;19.1;62.4
53954;HTU21D;39862;54.856;26.318;2022-08-14T04:28:53;19.1;62.6
53954;HTU21D;39862;54.856;26.318;2022-08-14T04:34:03;19.2;62.5
53954;HTU21D;39862;54.856;26.318;2022-08-14T04:38:43;19.2;62.5
53954;HTU21D;39862;54.856;26.318;2022-08-14T04:43:33;19.3;62.7
53954;HTU21D;39862;54.856;26.318;2022-08-14T04:48:55;19.3;62.9
53954;HTU21D;39862;54.856;26.318;2022-08-14T04:54:07;19.4;63.4
53954;HTU21D;39862;54.856;26.318;2022-08-14T04:59:09;19.5;63.3
53954;HTU21D;39862;54.856;26.318;2022-08-14T05:03:57;19.5;63.2
53954;HTU21D;39862;54.856;26.318;2022-08-14T05:08:57;19.6;63.4
53954;HTU21D;39862;54.856;26.318;2022-08-14T05:14:07;19.7;63.7
53954;HTU21D;39862;54.856;26.318;2022-08-14T05:19:13;19.8;64
53954;HTU21D;39862;54.856;26.318;2022-08-14T05:23:49;19.9;64
53954;HTU21D;39862;54.856;26.318;2022-08-14T05:28:34;20;64
53954;HTU21D;39862;54.856;26.318;2022-08-14T05:33:44;20.2;64
53954;HTU21D;39862;54.856;26.318;2022-08-14T05:38:45;20.3;63.7
53954;HTU21D;39862;54.856;26.318;2022-08-14T05:43:55;20.4;63.5
53954;HTU21D;39862;54.856;26.318;2022-08-14T05:48:33;20.5;63.7
53954;HTU21D;39862;54.856;26.318;2022-08-14T05:54:07;20.7;64.2
53954;HTU21D;39862;54.856;26.318;2022-08-14T05:59:19;20.9;64.1
53954;HTU21D;39862;54.856;26.318;2022-08-14T06:03:57;21;64
53954;HTU21D;39862;54.856;26.318;2022-08-14T06:09:19;21.2;64.5
53954;HTU21D;39862;54.856;26.318;2022-08-14T06:14:19;21.4;66.1
53954;HTU21D;39862;54.856;26.318;2022-08-14T06:18:45;21.8;67.3
53954;HTU21D;39862;54.856;26.318;2022-08-14T06:23:41;22.2;67.9
53954;HTU21D;39862;54.856;26.318;2022-08-14T06:28:45;22.7;67.8
53954;HTU21D;39862;54.856;26.318;2022-08-14T06:34:19;23.2;67.4
53954;HTU21D;39862;54.856;26.318;2022-08-14T06:39:03;23.8;66.8
53954;HTU21D;39862;54.856;26.318;2022-08-14T06:44:08;24.3;66.1
53954;HTU21D;39862;54.856;26.318;2022-08-14T06:49:07;24.8;65.1
53954;HTU21D;39862;54.856;26.318;2022-08-14T06:54:07;25.3;64.1
53954;HTU21D;39862;54.856;26.318;2022-08-14T06:58:53;25.8;63.3
53954;HTU21D;39862;54.856;26.318;2022-08-14T07:04:05;26.3;62.2
53954;HTU21D;39862;54.856;26.318;2022-08-14T07:08:45;26.7;60.7
53954;HTU21D;39862;54.856;26.318;2022-08-14T07:13:45;27.1;59.4
53954;HTU21D;39862;54.856;26.318;2022-08-14T07:19:05;27.3;58.5
53954;HTU21D;39862;54.856;26.318;2022-08-14T07:24:19;27.5;58.2
53954;HTU21D;39862;54.856;26.318;2022-08-14T07:29:09;27.7;57.7
53954;HTU21D;39862;54.856;26.318;2022-08-14T07:33:35;27.9;57.3
53954;HTU21D;39862;54.856;26.318;2022-08-14T07:39:09;28.2;57.1
53954;HTU21D;39862;54.856;26.318;2022-08-14T07:44:09;28.5;56.3
53954;HTU21D;39862;54.856;26.318;2022-08-14T07:49:15;28.8;55.3
53954;HTU21D;39862;54.856;26.318;2022-08-14T07:53:53;29.1;54.9
53954;HTU21D;39862;54.856;26.318;2022-08-14T07:58:45;29.2;54.2
53954;HTU21D;39862;54.856;26.318;2022-08-14T08:03:45;29.4;53.6
53954;HTU21D;39862;54.856;26.318;2022-08-14T08:08:33;29.4;52.9
53954;HTU21D;39862;54.856;26.318;2022-08-14T08:13:45;29.4;52.4
53954;HTU21D;39862;54.856;26.318;2022-08-14T08:18:43;29.4;52.4
53954;HTU21D;39862;54.856;26.318;2022-08-14T08:24:07;29.4;52.5
53954;HTU21D;39862;54.856;26.318;2022-08-14T08:29:20;29.5;52.8
53954;HTU21D;39862;54.856;26.318;2022-08-14T08:33:49;29.5;52.9
53954;HTU21D;39862;54.856;26.318;2022-08-14T08:39:19;29.6;52.9
53954;HTU21D;39862;54.856;26.318;2022-08-14T08:44:07;29.7;52.5
53954;HTU21D;39862;54.856;26.318;2022-08-14T08:49:17;29.8;52.2
53954;HTU21D;39862;54.856;26.318;2022-08-14T08:53:41;29.9;51.9
53954;HTU21D;39862;54.856;26.318;2022-08-14T08:58:36;30;51.5
53954;HTU21D;39862;54.856;26.318;2022-08-14T09:04:18;30.1;51.3
53954;HTU21D;39862;54.856;26.318;2022-08-14T09:09:15;30.3;50.7
53954;HTU21D;39862;54.856;26.318;2022-08-14T09:13:46;30.4;50.4
53954;HTU21D;39862;54.856;26.318;2022-08-14T09:19:09;30.5;50.2
53954;HTU21D;39862;54.856;26.318;2022-08-14T09:24:07;30.6;50
53954;HTU21D;39862;54.856;26.318;2022-08-14T09:28:53;30.7;50
53954;HTU21D;39862;54.856;26.318;2022-08-14T09:34:09;30.8;49.7
53954;HTU21D;39862;54.856;26.318;2022-08-14T09:43:42;30.9;49.4
53954;HTU21D;39862;54.856;26.318;2022-08-14T09:48:43;30.9;49.6
53954;HTU21D;39862;54.856;26.318;2022-08-14T09:54:15;31;49.6
53954;HTU21D;39862;54.856;26.318;2022-08-14T09:59:17;31.2;49.5
53954;HTU21D;39862;54.856;26.318;2022-08-14T10:04:21;31.3;49.5
53954;HTU21D;39862;54.856;26.318;2022-08-14T10:08:47;31.5;49.1
53954;HTU21D;39862;54.856;26.318;2022-08-14T10:14:18;31.6;48.6
53954;HTU21D;39862;54.856;26.318;2022-08-14T10:19:17;31.6;48.4
53954;HTU21D;39862;54.856;26.318;2022-08-14T10:23:53;31.7;48.3
53954;HTU21D;39862;54.856;26.318;2022-08-14T10:29:02;31.7;48.2
53954;HTU21D;39862;54.856;26.318;2022-08-14T10:33:56;31.7;48.1
53954;HTU21D;39862;54.856;26.318;2022-08-14T10:38:45;31.7;48.4
53954;HTU21D;39862;54.856;26.318;2022-08-14T10:44:05;31.7;48.8
53954;HTU21D;39862;54.856;26.318;2022-08-14T10:48:33;31.8;49.1
53954;HTU21D;39862;54.856;26.318;2022-08-14T10:54:27;32;49.3
53954;HTU21D;39862;54.856;26.318;2022-08-14T10:59:06;32.3;48.9
53954;HTU21D;39862;54.856;26.318;2022-08-14T11:03:45;32.5;48.1
53954;HTU21D;39862;54.856;26.318;2022-08-14T11:09:19;32.8;47.7
53954;HTU21D;39862;54.856;26.318;2022-08-14T11:14:07;33.1;47.1
53954;HTU21D;39862;54.856;26.318;2022-08-14T11:19:15;33.4;46.6
53954;HTU21D;39862;54.856;26.318;2022-08-14T11:23:45;33.7;46.3
53954;HTU21D;39862;54.856;26.318;2022-08-14T11:28:47;34;46
53954;HTU21D;39862;54.856;26.318;2022-08-14T11:34:19;34.3;45.5
53954;HTU21D;39862;54.856;26.318;2022-08-14T11:39:03;34.6;45.2
53954;HTU21D;39862;54.856;26.318;2022-08-14T11:43:55;34.9;44
53954;HTU21D;39862;54.856;26.318;2022-08-14T11:49:09;35;42.9
53954;HTU21D;39862;54.856;26.318;2022-08-14T11:54:20;34.9;42.5
53954;HTU21D;39862;54.856;26.318;2022-08-14T11:58:53;34.7;42.7
53954;HTU21D;39862;54.856;26.318;2022-08-14T12:04:08;34.5;43.2
53954;HTU21D;39862;54.856;26.318;2022-08-14T12:09:27;34.3;43.4
53954;HTU21D;39862;54.856;26.318;2022-08-14T12:13:53;34.1;43.3
53954;HTU21D;39862;54.856;26.318;2022-08-14T12:18:34;34;43.1
53954;HTU21D;39862;54.856;26.318;2022-08-14T12:23:44;34;42.5
53954;HTU21D;39862;54.856;26.318;2022-08-14T12:29:17;34;42.2
53954;HTU21D;39862;54.856;26.318;2022-08-14T12:34:10;33.9;42.3
53954;HTU21D;39862;54.856;26.318;2022-08-14T12:38:37;33.8;42.7
53954;HTU21D;39862;54.856;26.318;2022-08-14T12:43:42;33.8;43
53954;HTU21D;39862;54.856;26.318;2022-08-14T12:49:10;33.8;42.9
53954;HTU21D;39862;54.856;26.318;2022-08-14T12:54:19;33.8;43.2
53954;HTU21D;39862;54.856;26.318;2022-08-14T12:58:41;33.8;43.6
53954;HTU21D;39862;54.856;26.318;2022-08-14T13:03:33;33.8;43.9
53954;HTU21D;39862;54.856;26.318;2022-08-14T13:08:45;33.9;43.7
53954;HTU21D;39862;54.856;26.318;2022-08-14T13:13:45;33.8;43.5
53954;HTU21D;39862;54.856;26.318;2022-08-14T13:18:53;33.8;43.3
53954;HTU21D;39862;54.856;26.318;2022-08-14T13:23:54;33.8;43.3
53954;HTU21D;39862;54.856;26.318;2022-08-14T13:29:07;33.7;43.5
53954;HTU21D;39862;54.856;26.318;2022-08-14T13:34:20;33.6;43.7
53954;HTU21D;39862;54.856;26.318;2022-08-14T13:39:07;33.6;43.8
53954;HTU21D;39862;54.856;26.318;2022-08-14T13:44:17;33.5;44.1
53954;HTU21D;39862;54.856;26.318;2022-08-14T13:49:15;33.4;44.4
53954;HTU21D;39862;54.856;26.318;2022-08-14T13:53:46;33.4;44.8
53954;HTU21D;39862;54.856;26.318;2022-08-14T13:58:33;33.4;44.7
53954;HTU21D;39862;54.856;26.318;2022-08-14T14:03:45;33.2;44.7
53954;HTU21D;39862;54.856;26.318;2022-08-14T14:09:03;33;44.5
53954;HTU21D;39862;54.856;26.318;2022-08-14T14:14:05;32.8;44.6
53954;HTU21D;39862;54.856;26.318;2022-08-14T14:19:15;32.5;44.9
53954;HTU21D;39862;54.856;26.318;2022-08-14T14:24:08;32.3;45.1
53954;HTU21D;39862;54.856;26.318;2022-08-14T14:29:05;32.1;45.2
53954;HTU21D;39862;54.856;26.318;2022-08-14T14:33:55;31.9;45.6
53954;HTU21D;39862;54.856;26.318;2022-08-14T14:38:35;31.8;46.1
53954;HTU21D;39862;54.856;26.318;2022-08-14T14:43:43;31.7;46.4
53954;HTU21D;39862;54.856;26.318;2022-08-14T14:48:51;31.6;46.7
53954;HTU21D;39862;54.856;26.318;2022-08-14T14:54:03;31.4;47.1
53954;HTU21D;39862;54.856;26.318;2022-08-14T14:59:15;31.3;47.4
53954;HTU21D;39862;54.856;26.318;2022-08-14T15:04:05;31.2;47.5
53954;HTU21D;39862;54.856;26.318;2022-08-14T15:08:43;31;47.6
53954;HTU21D;39862;54.856;26.318;2022-08-14T15:13:54;30.9;47.9
53954;HTU21D;39862;54.856;26.318;2022-08-14T15:19:01;30.7;48.3
53954;HTU21D;39862;54.856;26.318;2022-08-14T15:24:15;30.6;48.6
53954;HTU21D;39862;54.856;26.318;2022-08-14T15:28:51;30.5;48.8
53954;HTU21D;39862;54.856;26.318;2022-08-14T15:33:41;30.3;48.8
53954;HTU21D;39862;54.856;26.318;2022-08-14T15:38:43;30.2;49
53954;HTU21D;39862;54.856;26.318;2022-08-14T15:43:34;30.1;49.2
53954;HTU21D;39862;54.856;26.318;2022-08-14T15:48:41;30;49.4
53954;HTU21D;39862;54.856;26.318;2022-08-14T15:53:33;29.9;49.5
53954;HTU21D;39862;54.856;26.318;2022-08-14T15:59:07;29.8;49.7
53954;HTU21D;39862;54.856;26.318;2022-08-14T16:04:18;29.7;50
53954;HTU21D;39862;54.856;26.318;2022-08-14T16:08:56;29.6;50.1
53954;HTU21D;39862;54.856;26.318;2022-08-14T16:14:17;29.4;50.3
53954;HTU21D;39862;54.856;26.318;2022-08-14T16:19:14;29.3;50.6
53954;HTU21D;39862;54.856;26.318;2022-08-14T16:23:43;29.2;50.9
53954;HTU21D;39862;54.856;26.318;2022-08-14T16:28:49;29.1;51.2
53954;HTU21D;39862;54.856;26.318;2022-08-14T16:33:35;29;51.3
53954;HTU21D;39862;54.856;26.318;2022-08-14T16:39:17;28.9;51.7
53954;HTU21D;39862;54.856;26.318;2022-08-14T16:44:06;28.8;52
53954;HTU21D;39862;54.856;26.318;2022-08-14T16:48:33;28.7;52.2
53954;HTU21D;39862;54.856;26.318;2022-08-14T16:54:06;28.7;52.5
53954;HTU21D;39862;54.856;26.318;2022-08-14T16:59:09;28.6;52.7
53954;HTU21D;39862;54.856;26.318;2022-08-14T17:04:15;28.5;52.9
53954;HTU21D;39862;54.856;26.318;2022-08-14T17:09:04;28.4;53.2
53954;HTU21D;39862;54.856;26.318;2022-08-14T17:14:17;28.3;53.5
53954;HTU21D;39862;54.856;26.318;2022-08-14T17:18:52;28.2;53.7
53954;HTU21D;39862;54.856;26.318;2022-08-14T17:23:52;28.1;53.9
53954;HTU21D;39862;54.856;26.318;2022-08-14T17:29:19;27.9;54.3
53954;HTU21D;39862;54.856;26.318;2022-08-14T17:34:21;27.8;54.5
53954;HTU21D;39862;54.856;26.318;2022-08-14T17:39:22;27.7;54.6
53954;HTU21D;39862;54.856;26.318;2022-08-14T17:43:33;27.6;54.8
53954;HTU21D;39862;54.856;26.318;2022-08-14T17:49:19;27.5;55
53954;HTU21D;39862;54.856;26.318;2022-08-14T17:54:19;27.4;55.1
53954;HTU21D;39862;54.856;26.318;2022-08-14T17:58:54;27.2;55.3
53954;HTU21D;39862;54.856;26.318;2022-08-14T18:03:41;27.1;55.5
53954;HTU21D;39862;54.856;26.318;2022-08-14T18:08:54;27;55.8
53954;HTU21D;39862;54.856;26.318;2022-08-14T18:13:43;26.9;56
53954;HTU21D;39862;54.856;26.318;2022-08-14T18:19:10;26.8;56.2
53954;HTU21D;39862;54.856;26.318;2022-08-14T18:23:55;26.7;56.4
53954;HTU21D;39862;54.856;26.318;2022-08-14T18:29:20;26.6;56.5
53954;HTU21D;39862;54.856;26.318;2022-08-14T18:34:12;26.4;56.5
53954;HTU21D;39862;54.856;26.318;2022-08-14T18:39:30;26.3;56.6
53954;HTU21D;39862;54.856;26.318;2022-08-14T18:49:19;26.1;57
53954;HTU21D;39862;54.856;26.318;2022-08-14T18:54:27;26;57.2
53954;HTU21D;39862;54.856;26.318;2022-08-14T18:58:47;25.9;57.4
53954;HTU21D;39862;54.856;26.318;2022-08-14T19:14:05;25.7;58
53954;HTU21D;39862;54.856;26.318;2022-08-14T19:18:51;25.6;58.1
53954;HTU21D;39862;54.856;26.318;2022-08-14T19:24:14;25.5;58.1
53954;HTU21D;39862;54.856;26.318;2022-08-14T19:29:39;25.5;58.3
53954;HTU21D;39862;54.856;26.318;2022-08-14T19:33:54;25.4;58.4
53954;HTU21D;39862;54.856;26.318;2022-08-14T19:39:05;25.3;58.5
53954;HTU21D;39862;54.856;26.318;2022-08-14T19:44:21;25.2;58.7
53954;HTU21D;39862;54.856;26.318;2022-08-14T19:48:43;25.1;58.8
53954;HTU21D;39862;54.856;26.318;2022-08-14T19:53:56;25.1;58.8
53954;HTU21D;39862;54.856;26.318;2022-08-14T19:59:21;25;58.9
53954;HTU21D;39862;54.856;26.318;2022-08-14T20:04:23;24.9;59.1
53954;HTU21D;39862;54.856;26.318;2022-08-14T20:09:19;24.8;59.3
53954;HTU21D;39862;54.856;26.318;2022-08-14T20:14:00;24.7;59.4
53954;HTU21D;39862;54.856;26.318;2022-08-14T20:19:19;24.6;59.5
53954;HTU21D;39862;54.856;26.318;2022-08-14T20:24:28;24.6;59.8
53954;HTU21D;39862;54.856;26.318;2022-08-14T20:28:33;24.5;60
53954;HTU21D;39862;54.856;26.318;2022-08-14T20:34:09;24.4;60.1
53954;HTU21D;39862;54.856;26.318;2022-08-14T20:38:45;24.3;60.1
53954;HTU21D;39862;54.856;26.318;2022-08-14T20:43:45;24.3;60.1
53954;HTU21D;39862;54.856;26.318;2022-08-14T20:48:33;24.2;60.1
53954;HTU21D;39862;54.856;26.318;2022-08-14T20:53:45;24.1;60.3
53954;HTU21D;39862;54.856;26.318;2022-08-14T20:58:45;24.1;60.4
53954;HTU21D;39862;54.856;26.318;2022-08-14T21:04:51;24;60.6
53954;HTU21D;39862;54.856;26.318;2022-08-14T21:09:09;23.9;60.7
53954;HTU21D;39862;54.856;26.318;2022-08-14T21:13:57;23.9;60.7
53954;HTU21D;39862;54.856;26.318;2022-08-14T21:19:05;23.8;60.7
53954;HTU21D;39862;54.856;26.318;2022-08-14T21:24:20;23.8;60.9
53954;HTU21D;39862;54.856;26.318;2022-08-14T21:28:44;23.7;61.1
53954;HTU21D;39862;54.856;26.318;2022-08-14T21:33:34;23.6;61.2
53954;HTU21D;39862;54.856;26.318;2022-08-14T21:38:34;23.6;61.4
53954;HTU21D;39862;54.856;26.318;2022-08-14T21:44:18;23.5;61.5
53954;HTU21D;39862;54.856;26.318;2022-08-14T21:49:05;23.5;61.6
53954;HTU21D;39862;54.856;26.318;2022-08-14T21:54:07;23.4;61.7
53954;HTU21D;39862;54.856;26.318;2022-08-14T21:59:09;23.4;61.8
53954;HTU21D;39862;54.856;26.318;2022-08-14T22:04:03;23.4;61.9
53954;HTU21D;39862;54.856;26.318;2022-08-14T22:08:33;23.4;62.1
53954;HTU21D;39862;54.856;26.318;2022-08-14T22:14:05;23.3;62.1
53954;HTU21D;39862;54.856;26.318;2022-08-14T22:18:33;23.3;62.1
